Time;durP1;ratioP1;P1;durP2;ratioP2;P2;SDS_P1;SDS_P2;PMS_P1;PMS_P2;Temp;Humidity;BMP_temperature;BMP_pressure;BME280_temperature;BME280_humidity;BME280_pressure;Samples;Min_cycle;Max_cycle;Signal;HPM_P1;HPM_P2
2024/02/14 07:37:48;;;;;;;10.40;1.70;;;;;;;5.44;81.94;97047.41;2090211;28;20548;-65
2024/02/14 07:38:50;;;;;;;4.80;1.73;;;;;;;5.53;81.98;97043.78;2089466;28;20282;-65
2024/02/14 07:42:59;;;;;;;3.13;1.75;;;;;;;6.03;79.98;97047.19;2085631;28;20570;-65
2024/02/14 07:45:09;;;;;;;5.80;1.20;;;;;;;6.29;79.40;97050.13;2079642;28;20554;-65
2024/02/14 07:47:27;;;;;;;4.28;1.13;;;;;;;6.50;78.81;97041.88;2086548;28;20579;-65
2024/02/14 08:00:18;;;;;;;7.10;1.00;;;;;;;5.98;80.13;97043.84;2083246;28;20918;-67
2024/02/14 09:13:53;;;;;;;5.97;1.80;;;;;;;7.29;77.84;97084.19;2089321;28;20874;-65
2024/02/14 09:18:27;;;;;;;6.05;1.60;;;;;;;7.36;78.45;97079.69;2082606;28;20561;-67
2024/02/14 09:22:35;;;;;;;4.47;1.40;;;;;;;7.45;77.99;97074.28;2084501;28;20575;-68
2024/02/14 09:26:00;;;;;;;3.70;1.30;;;;;;;7.55;77.94;97076.63;2084168;28;20575;-67
2024/02/14 09:29:49;;;;;;;2.90;1.20;;;;;;;7.50;78.05;97058.56;2119250;27;20562;-63
2024/02/14 09:30:51;;;;;;;5.28;1.60;;;;;;;7.65;77.93;97071.16;2105507;28;20297;-63
2024/02/14 09:34:07;;;;;;;5.20;1.63;;;;;;;7.75;78.21;97078.72;2084245;28;20542;-62
2024/02/14 09:35:10;;;;;;;4.72;1.38;;;;;;;7.74;77.98;97079.59;2074680;28;20223;-65
2024/02/14 09:36:11;;;;;;;7.35;1.35;;;;;;;7.83;78.03;97088.03;2069364;28;21065;-64
2024/02/14 09:37:13;;;;;;;6.10;1.88;;;;;;;7.92;77.87;97094.72;2072077;28;20224;-65
2024/02/14 09:39:54;;;;;;;10.98;1.60;;;;;;;7.96;77.54;97085.94;2082246;28;20975;-65
2024/02/14 09:41:00;;;;;;;9.32;1.60;;;;;;;8.03;77.70;97076.22;2078294;28;20334;-65
2024/02/14 09:42:08;;;;;;;4.03;1.42;;;;;;;8.15;77.04;97093.22;2078232;28;20198;-65
2024/02/14 09:43:28;;;;;;;8.27;1.50;;;;;;;8.23;77.06;97091.28;2085605;28;20204;-66
2024/02/14 09:44:30;;;;;;;5.10;1.17;;;;;;;8.35;76.44;97084.84;2083425;28;20481;-64
2024/02/14 09:45:33;;;;;;;2.50;1.23;;;;;;;8.54;76.34;97085.22;2077125;28;20216;-65
2024/02/14 09:46:39;;;;;;;4.43;1.20;;;;;;;8.71;75.57;97089.06;2078021;28;20607;-65
2024/02/14 09:47:42;;;;;;;6.97;1.20;;;;;;;8.99;74.96;97079.50;2080526;28;20643;-65
2024/02/14 09:48:45;;;;;;;3.25;1.50;;;;;;;9.38;74.00;97072.19;2079677;28;20197;-65
2024/02/14 09:49:46;;;;;;;5.28;1.27;;;;;;;9.92;72.80;97080.81;2077693;28;20205;-64
2024/02/14 09:50:48;;;;;;;3.85;1.20;;;;;;;9.92;72.00;97076.44;2077776;28;20247;-65
2024/02/14 09:51:52;;;;;;;6.78;1.58;;;;;;;10.10;71.77;97087.13;2077828;28;20205;-65
2024/02/14 09:52:54;;;;;;;5.40;1.48;;;;;;;10.94;68.83;97080.56;2077504;28;20248;-65
2024/02/14 09:53:59;;;;;;;3.55;1.38;;;;;;;11.31;68.15;97075.59;2078338;28;20193;-65
2024/02/14 09:55:02;;;;;;;4.40;1.48;;;;;;;12.14;65.99;97065.19;2077817;28;20201;-65
2024/02/14 09:56:04;;;;;;;2.70;1.10;;;;;;;12.83;63.67;97080.38;2078495;28;20237;-66
2024/02/14 09:57:06;;;;;;;4.82;1.38;;;;;;;12.22;64.62;97076.19;2081125;28;20215;-66
2024/02/14 09:58:08;;;;;;;3.83;1.73;;;;;;;12.27;64.85;97084.66;2079694;28;20618;-65
2024/02/14 09:59:10;;;;;;;4.32;1.60;;;;;;;12.54;64.06;97079.09;2077878;28;20598;-66
2024/02/14 10:00:14;;;;;;;2.85;1.45;;;;;;;12.66;64.41;97086.41;2077057;28;20284;-66
2024/02/14 10:01:20;;;;;;;4.72;2.15;;;;;;;12.57;64.28;97077.19;2078349;28;20202;-66
2024/02/14 10:02:22;;;;;;;4.22;1.73;;;;;;;12.58;64.76;97076.28;2078227;28;20261;-66
2024/02/14 10:03:25;;;;;;;3.42;1.58;;;;;;;12.89;63.64;97074.84;2078127;28;20280;-66
2024/02/14 10:04:27;;;;;;;4.43;1.40;;;;;;;13.03;63.50;97073.34;2077725;28;20855;-66
2024/02/14 10:05:28;;;;;;;9.43;1.52;;;;;;;12.93;63.07;97072.09;2077690;28;20229;-66
2024/02/14 10:06:31;;;;;;;3.83;1.20;;;;;;;13.45;62.21;97071.38;2077882;28;20286;-65
2024/02/14 10:07:43;;;;;;;3.60;1.15;;;;;;;13.45;62.21;97071.38;2076721;28;20228;-63
2024/02/14 10:08:45;;;;;;;4.05;1.40;;;;;;;14.20;60.85;97077.19;2077726;28;20846;-64
2024/02/14 10:10:07;;;;;;;8.68;1.88;;;;;;;14.52;60.11;97072.00;2076452;28;20197;-64
2024/02/14 10:11:10;;;;;;;2.13;1.23;;;;;;;14.44;60.35;97069.78;2077310;28;20271;-65
2024/02/14 10:12:12;;;;;;;2.97;1.10;;;;;;;14.41;60.84;97071.72;2076378;28;20280;-65
2024/02/14 10:13:16;;;;;;;4.75;1.20;;;;;;;14.34;61.04;97073.84;2078148;28;20555;-65
2024/02/14 10:14:17;;;;;;;4.03;1.27;;;;;;;14.13;61.37;97074.03;2077805;28;20221;-65
2024/02/14 10:15:19;;;;;;;2.90;0.93;;;;;;;13.61;62.90;97081.94;2077864;28;20712;-65
2024/02/14 10:16:21;;;;;;;4.90;1.05;;;;;;;13.57;63.00;97083.03;2078386;28;20205;-65
2024/02/14 10:17:26;;;;;;;4.55;1.38;;;;;;;13.92;62.43;97080.41;2077443;28;20296;-65
2024/02/14 10:18:29;;;;;;;3.28;1.10;;;;;;;13.26;63.65;97076.66;2077559;28;20193;-65
2024/02/14 10:19:31;;;;;;;5.28;1.45;;;;;;;13.28;64.11;97070.41;2077181;28;20214;-65
2024/02/14 10:20:34;;;;;;;6.10;1.20;;;;;;;12.60;65.97;97083.22;2075600;28;20815;-65
2024/02/14 10:21:36;;;;;;;3.20;1.10;;;;;;;12.73;65.98;97073.88;2078195;28;20205;-65
2024/02/14 10:22:38;;;;;;;4.20;1.48;;;;;;;12.69;66.14;97073.16;2078172;28;20677;-65
2024/02/14 10:23:40;;;;;;;2.80;1.23;;;;;;;13.61;64.27;97069.69;2078138;28;20204;-65
2024/02/14 10:24:41;;;;;;;4.13;1.15;;;;;;;13.95;63.46;97060.06;2078256;28;20216;-65
2024/02/14 10:25:43;;;;;;;4.63;1.05;;;;;;;14.37;62.72;97069.28;2077667;28;20229;-65
2024/02/14 10:26:45;;;;;;;3.88;1.20;;;;;;;14.01;62.77;97061.53;2077582;28;20197;-65
2024/02/14 10:27:47;;;;;;;3.40;0.93;;;;;;;13.80;63.50;97063.50;2077574;28;20201;-65
2024/02/14 10:28:51;;;;;;;4.55;1.30;;;;;;;13.66;63.75;97067.69;2078181;28;20197;-65
2024/02/14 10:29:56;;;;;;;2.05;0.90;;;;;;;13.89;63.52;97065.66;2076733;28;20236;-65
2024/02/14 10:30:57;;;;;;;2.50;1.00;;;;;;;14.27;63.08;97069.81;2078793;28;20197;-65
2024/02/14 10:31:59;;;;;;;3.30;1.13;;;;;;;14.81;61.65;97074.88;2079709;28;20197;-68
2024/02/14 10:33:03;;;;;;;3.67;1.00;;;;;;;14.57;62.15;97069.13;2081115;28;20215;-66
2024/02/14 10:34:20;;;;;;;1.63;0.70;;;;;;;14.13;62.70;97060.91;2078673;28;20193;-67
2024/02/14 10:35:22;;;;;;;1.85;0.80;;;;;;;14.22;63.00;97049.09;2076716;28;20228;-66
2024/02/14 10:36:23;;;;;;;1.63;0.80;;;;;;;14.94;62.02;97069.78;2081667;28;20723;-63
2024/02/14 10:37:28;;;;;;;4.05;1.10;;;;;;;15.02;61.12;97062.31;2081653;28;20648;-65
2024/02/14 10:38:32;;;;;;;4.30;0.95;;;;;;;15.21;60.55;97056.88;2080989;28;20201;-65
2024/02/14 10:39:36;;;;;;;3.25;0.80;;;;;;;14.81;61.57;97048.56;2078824;28;20232;-64
2024/02/14 10:40:38;;;;;;;2.10;0.80;;;;;;;14.08;63.32;97067.31;2074435;28;20243;-64
2024/02/14 10:41:40;;;;;;;3.22;0.98;;;;;;;13.95;63.85;97065.31;2077949;28;20288;-64
2024/02/14 10:42:42;;;;;;;3.45;0.90;;;;;;;14.20;63.78;97080.66;2078529;28;20205;-66
2024/02/14 10:43:45;;;;;;;1.92;0.80;;;;;;;14.36;63.01;97061.47;2081451;28;20237;-69
2024/02/14 10:44:49;;;;;;;3.25;0.90;;;;;;;14.34;62.98;97071.22;2083076;28;20281;-68
2024/02/14 10:45:53;;;;;;;2.05;0.90;;;;;;;13.81;64.40;97079.16;2073698;28;20221;-67
2024/02/14 10:46:58;;;;;;;5.85;1.00;;;;;;;13.60;65.46;97073.22;2078315;28;20201;-67
2024/02/14 10:48:01;;;;;;;12.00;1.25;;;;;;;13.13;66.67;97082.47;2085424;28;20204;-68
2024/02/14 10:49:04;;;;;;;7.57;1.15;;;;;;;12.89;67.80;97079.25;2077411;28;20805;-68
2024/02/14 10:50:07;;;;;;;2.33;0.90;;;;;;;12.27;68.99;97083.84;2076562;28;20205;-68
2024/02/14 10:51:12;;;;;;;2.38;0.88;;;;;;;11.90;70.70;97074.00;2073299;28;20679;-68
2024/02/14 10:52:16;;;;;;;2.28;0.98;;;;;;;11.47;71.75;97073.22;2072122;28;20197;-68
2024/02/14 10:53:18;;;;;;;2.10;0.98;;;;;;;11.37;72.27;97090.19;2071774;28;20198;-67
2024/02/14 10:54:20;;;;;;;1.98;0.85;;;;;;;11.21;73.59;97069.03;2071841;28;20270;-67
2024/02/14 10:55:26;;;;;;;2.08;0.90;;;;;;;11.16;74.12;97087.53;2071123;28;20252;-68
2024/02/14 10:56:32;;;;;;;2.47;0.90;;;;;;;10.85;74.62;97070.44;2071961;28;20287;-68
2024/02/14 10:57:35;;;;;;;4.35;0.90;;;;;;;10.82;75.61;97094.09;2072093;28;20224;-68
2024/02/14 10:58:37;;;;;;;2.08;0.90;;;;;;;10.59;75.99;97092.38;2072500;28;20213;-68
2024/02/14 10:59:43;;;;;;;2.83;1.10;;;;;;;10.51;76.58;97089.16;2072370;28;20225;-68
2024/02/14 11:00:46;;;;;;;2.85;1.00;;;;;;;10.42;76.71;97098.19;2071352;28;20222;-67
2024/02/14 11:01:48;;;;;;;1.73;1.05;;;;;;;10.33;77.13;97101.13;2071967;28;20196;-68
2024/02/14 11:02:51;;;;;;;2.65;1.15;;;;;;;10.20;77.63;97092.88;2072356;28;20214;-68
2024/02/14 11:03:55;;;;;;;2.33;1.02;;;;;;;10.13;78.04;97100.06;2072654;28;20205;-68
2024/02/14 11:04:57;;;;;;;2.13;1.00;;;;;;;10.18;78.35;97105.97;2071341;28;20290;-69
2024/02/14 11:06:03;;;;;;;1.67;0.90;;;;;;;9.86;78.80;97071.44;2071849;28;20202;-68
2024/02/14 11:07:10;;;;;;;2.30;1.10;;;;;;;10.09;78.89;97106.31;2061863;28;20194;-67
2024/02/14 11:08:18;;;;;;;1.88;1.00;;;;;;;9.96;79.10;97106.72;2068197;28;20209;-68
2024/02/14 11:09:20;;;;;;;2.78;1.00;;;;;;;9.81;79.82;97083.78;2075015;28;20199;-67
2024/02/14 11:10:22;;;;;;;1.75;0.90;;;;;;;9.89;79.41;97102.66;2070124;28;20268;-67
2024/02/14 11:11:25;;;;;;;3.03;0.90;;;;;;;9.78;79.60;97099.56;2071718;28;20210;-68
2024/02/14 11:12:26;;;;;;;2.38;1.08;;;;;;;9.82;80.00;97103.75;2074714;28;20208;-67
2024/02/14 11:13:32;;;;;;;1.92;0.90;;;;;;;9.78;80.36;97107.38;2067330;28;20716;-68
2024/02/14 11:14:35;;;;;;;1.70;0.90;;;;;;;9.67;80.59;97079.03;2060929;28;20316;-68
2024/02/14 11:23:11;;;;;;;2.42;0.80;;;;;;;9.83;81.39;97121.09;2085119;28;20929;-65
2024/02/14 11:29:01;;;;;;;2.10;0.93;;;;;;;9.89;81.75;97114.81;2082639;28;20561;-65
2024/02/14 11:34:17;;;;;;;1.70;0.90;;;;;;;9.95;81.43;97118.09;2083176;28;20568;-67
2024/02/14 11:39:21;;;;;;;2.22;1.10;;;;;;;10.10;81.09;97108.84;2084422;28;21091;-67
2024/02/14 11:40:23;;;;;;;1.85;0.75;;;;;;;10.04;81.50;97098.63;2076658;28;20228;-68
2024/02/14 11:44:32;;;;;;;1.30;0.70;;;;;;;10.19;81.08;97112.91;2082508;28;20572;-67
2024/02/14 11:45:34;;;;;;;3.90;0.93;;;;;;;10.24;81.02;97115.34;2074669;28;20803;-68
2024/02/14 11:46:36;;;;;;;1.70;0.77;;;;;;;10.25;80.99;97109.22;2073056;28;20197;-68
2024/02/14 11:47:38;;;;;;;2.60;1.10;;;;;;;10.28;80.98;97103.88;2073776;28;20189;-67
2024/02/14 11:48:41;;;;;;;1.95;0.70;;;;;;;10.40;80.68;97100.88;2071895;28;20193;-68
2024/02/14 11:49:46;;;;;;;2.38;0.70;;;;;;;10.44;80.12;97107.66;2073712;28;20636;-68
2024/02/14 11:50:47;;;;;;;2.17;0.80;;;;;;;10.51;80.26;97094.41;2073191;28;20226;-68
2024/02/14 11:51:49;;;;;;;1.70;0.90;;;;;;;10.66;79.72;97098.19;2077401;28;20201;-68
2024/02/14 11:52:51;;;;;;;4.57;0.85;;;;;;;10.79;79.16;97094.19;2077402;28;20206;-68
2024/02/14 11:53:52;;;;;;;2.50;0.98;;;;;;;10.78;78.73;97092.50;2074880;28;20194;-68
2024/02/14 11:54:56;;;;;;;10.95;4.82;;;;;;;11.00;77.98;97102.97;2076534;28;20563;-68
2024/02/14 11:55:58;;;;;;;7.40;2.80;;;;;;;11.09;77.51;97102.59;2073693;28;20243;-66
2024/02/14 11:57:00;;;;;;;2.83;1.35;;;;;;;11.16;76.60;97095.38;2072328;28;20290;-66
2024/02/14 11:58:01;;;;;;;26.83;14.40;;;;;;;11.20;76.63;97093.47;2074107;28;20230;-66
2024/02/14 11:59:07;;;;;;;21.33;10.20;;;;;;;11.76;75.56;97103.38;2071894;28;20778;-67
2024/02/14 12:00:09;;;;;;;12.77;2.67;;;;;;;12.27;74.45;97099.53;2071963;28;20200;-67
2024/02/14 12:01:12;;;;;;;45.60;19.15;;;;;;;12.22;73.27;97097.13;2074663;28;20197;-67
2024/02/14 12:02:16;;;;;;;96.55;39.72;;;;;;;12.04;74.02;97106.63;2075415;28;20686;-67
2024/02/14 12:03:22;;;;;;;25.35;11.07;;;;;;;11.92;74.37;97092.25;2075630;28;20223;-68
2024/02/14 12:04:24;;;;;;;39.92;17.17;;;;;;;12.04;74.38;97090.94;2074123;28;20256;-67
2024/02/14 12:05:26;;;;;;;91.63;40.17;;;;;;;11.99;74.62;97083.25;2071878;28;20229;-68
2024/02/14 12:06:36;;;;;;;37.80;16.13;;;;;;;11.84;75.12;97097.81;2073247;28;20658;-68
2024/02/14 12:07:38;;;;;;;81.03;35.75;;;;;;;11.64;75.31;97097.81;2071878;28;20606;-68
2024/02/14 12:08:40;;;;;;;8.73;4.53;;;;;;;11.50;75.92;97101.84;2073616;28;20499;-67
2024/02/14 12:09:43;;;;;;;6.45;3.10;;;;;;;11.27;76.52;97098.44;2074109;28;20192;-67
2024/02/14 12:10:52;;;;;;;9.23;3.83;;;;;;;11.30;76.56;97100.06;2073126;28;20225;-67
2024/02/14 12:11:54;;;;;;;11.63;5.90;;;;;;;11.37;76.41;97075.34;2073653;28;20201;-67
2024/02/14 12:12:56;;;;;;;4.50;2.33;;;;;;;11.47;76.05;97095.91;2074933;28;20336;-67
2024/02/14 12:14:00;;;;;;;3.08;1.10;;;;;;;11.43;75.88;97097.78;2074380;28;20281;-67
2024/02/14 12:15:02;;;;;;;1.88;0.75;;;;;;;11.33;76.22;97091.25;2073202;28;20201;-67
2024/02/14 12:16:06;;;;;;;2.53;1.13;;;;;;;11.33;76.97;97109.53;2074244;28;20208;-67
2024/02/14 12:17:10;;;;;;;1.85;0.80;;;;;;;11.36;76.96;97094.56;2077225;28;20207;-68
2024/02/14 12:18:12;;;;;;;1.10;0.60;;;;;;;11.24;76.59;97080.22;2076740;28;20200;-68
2024/02/14 12:19:15;;;;;;;1.70;0.70;;;;;;;11.28;76.36;97099.25;2074793;28;20227;-67
2024/02/14 12:20:21;;;;;;;1.65;0.80;;;;;;;11.26;76.79;97096.72;2074122;28;20219;-67
2024/02/14 12:21:26;;;;;;;2.95;0.80;;;;;;;11.34;76.69;97092.91;2073580;28;20206;-67
2024/02/14 12:22:27;;;;;;;1.40;0.60;;;;;;;11.35;76.50;97092.00;2070002;28;20200;-67
2024/02/14 12:23:29;;;;;;;9.77;0.70;;;;;;;11.30;76.57;97091.34;2072749;28;20212;-67
2024/02/14 12:24:31;;;;;;;2.10;0.70;;;;;;;11.24;76.59;97077.63;2073056;28;20295;-67
2024/02/14 12:25:33;;;;;;;3.75;1.08;;;;;;;11.37;76.60;97090.19;2073879;28;20292;-68
2024/02/14 12:26:38;;;;;;;2.33;0.70;;;;;;;11.38;76.41;97086.69;2072384;28;20239;-67
2024/02/14 12:27:41;;;;;;;1.85;0.70;;;;;;;11.46;76.25;97086.34;2074700;28;20212;-68
2024/02/14 12:28:45;;;;;;;1.38;0.60;;;;;;;11.48;75.90;97081.91;2074622;28;20531;-67
2024/02/14 12:29:47;;;;;;;1.10;0.55;;;;;;;11.55;75.32;97078.13;2073987;28;20526;-67
2024/02/14 12:30:56;;;;;;;1.20;0.60;;;;;;;11.60;75.68;97071.81;2073247;28;20347;-68
2024/02/14 12:32:08;;;;;;;1.95;0.50;;;;;;;11.55;75.40;97052.84;2074484;28;20207;-67
2024/02/14 12:33:13;;;;;;;1.10;0.55;;;;;;;11.70;75.55;97074.03;2076978;28;20257;-67
2024/02/14 12:34:17;;;;;;;1.70;0.70;;;;;;;11.82;75.49;97065.66;2077508;28;20658;-68
2024/02/14 12:35:22;;;;;;;3.45;0.68;;;;;;;11.87;75.16;97065.44;2078757;28;20781;-68
2024/02/14 12:36:24;;;;;;;1.20;0.60;;;;;;;11.88;75.27;97067.16;2074900;28;20289;-67
2024/02/14 12:37:26;;;;;;;1.00;0.50;;;;;;;11.93;74.76;97071.28;2081470;28;20203;-67
2024/02/14 12:38:27;;;;;;;1.55;0.65;;;;;;;11.93;74.97;97073.91;2080957;28;20191;-67
2024/02/14 12:39:30;;;;;;;1.40;0.65;;;;;;;12.06;74.95;97069.00;2071631;28;20192;-68
2024/02/14 12:40:32;;;;;;;1.20;0.50;;;;;;;11.98;74.42;97070.25;2068175;28;20990;-68
2024/02/14 12:41:37;;;;;;;1.45;0.60;;;;;;;11.94;74.42;97077.34;2074065;28;20199;-67
2024/02/14 12:42:38;;;;;;;1.45;0.60;;;;;;;11.91;75.02;97072.25;2073373;28;20717;-66
2024/02/14 12:43:40;;;;;;;2.85;0.65;;;;;;;11.84;75.16;97071.66;2071301;28;20247;-66
2024/02/14 12:44:41;;;;;;;1.25;0.50;;;;;;;11.85;75.43;97064.66;2071713;28;20626;-67
2024/02/14 12:45:43;;;;;;;1.13;0.52;;;;;;;11.93;75.59;97075.63;2071908;28;20604;-67
2024/02/14 12:46:46;;;;;;;1.27;0.60;;;;;;;11.90;75.22;97081.84;2073906;28;20333;-68
2024/02/14 12:47:47;;;;;;;3.58;0.60;;;;;;;11.88;75.31;97075.84;2073092;28;20288;-67
2024/02/14 12:48:49;;;;;;;1.30;0.60;;;;;;;11.84;75.26;97074.28;2081119;28;20439;-67
2024/02/14 12:49:51;;;;;;;1.30;0.68;;;;;;;11.87;75.89;97076.78;2073719;28;20250;-67
2024/02/14 12:50:54;;;;;;;1.20;0.60;;;;;;;11.87;75.33;97082.00;2070774;28;20293;-67
2024/02/14 12:51:57;;;;;;;2.13;0.60;;;;;;;11.86;75.31;97080.31;2071033;28;20678;-67
2024/02/14 12:52:59;;;;;;;1.10;0.50;;;;;;;11.95;75.47;97078.19;2072214;28;20619;-67
2024/02/14 12:54:00;;;;;;;1.08;0.55;;;;;;;12.00;75.26;97071.00;2072439;28;20682;-67
2024/02/14 12:55:02;;;;;;;1.40;0.60;;;;;;;11.98;75.21;97059.78;2069201;28;20647;-67
2024/02/14 12:56:04;;;;;;;1.65;0.60;;;;;;;12.04;75.18;97059.53;2064027;28;20209;-67
2024/02/14 12:57:06;;;;;;;1.30;0.55;;;;;;;12.05;74.91;97064.69;2067644;28;20202;-67
2024/02/14 12:58:09;;;;;;;1.05;0.52;;;;;;;12.06;75.01;97058.53;2067074;28;20196;-67
2024/02/14 12:59:20;;;;;;;1.35;0.55;;;;;;;11.87;74.91;97049.72;2066601;28;20221;-67
2024/02/14 13:00:22;;;;;;;1.35;0.60;;;;;;;12.00;75.54;97064.03;2067236;28;20571;-64
2024/02/14 13:01:24;;;;;;;1.20;0.60;;;;;;;12.00;75.56;97060.53;2066094;28;20203;-64
2024/02/14 13:02:28;;;;;;;2.13;0.60;;;;;;;11.95;75.49;97063.34;2069802;28;20212;-64
2024/02/14 13:03:29;;;;;;;1.10;0.60;;;;;;;11.96;75.52;97059.84;2067663;28;20198;-64
2024/02/14 13:04:31;;;;;;;1.98;0.60;;;;;;;11.96;75.57;97066.84;2064282;28;20209;-64
2024/02/14 13:05:34;;;;;;;2.17;0.50;;;;;;;11.96;75.76;97064.22;2067311;28;20809;-64
2024/02/14 13:06:39;;;;;;;1.45;0.60;;;;;;;11.91;75.79;97060.00;2068105;28;20582;-64
2024/02/14 13:07:42;;;;;;;4.22;0.80;;;;;;;11.95;76.00;97068.59;2068020;28;20194;-65
2024/02/14 13:08:44;;;;;;;1.50;0.60;;;;;;;11.87;75.98;97074.16;2068002;28;20602;-64
2024/02/14 13:09:45;;;;;;;2.10;0.60;;;;;;;11.91;75.64;97065.25;2068190;28;20757;-64
2024/02/14 13:10:47;;;;;;;1.10;0.50;;;;;;;12.00;76.04;97065.78;2065746;28;20234;-64
2024/02/14 13:11:49;;;;;;;1.20;0.50;;;;;;;12.11;75.56;97065.31;2066876;28;20194;-65
2024/02/14 13:12:50;;;;;;;3.72;0.60;;;;;;;12.16;75.78;97064.19;2065688;28;20205;-64
2024/02/14 13:13:52;;;;;;;1.10;0.50;;;;;;;12.12;75.43;97059.19;2068584;28;20201;-64
2024/02/14 13:14:54;;;;;;;1.25;0.60;;;;;;;12.00;75.26;97058.78;2068699;28;20197;-64
2024/02/14 13:15:55;;;;;;;1.20;0.50;;;;;;;12.02;75.51;97059.56;2067342;28;20887;-65
2024/02/14 13:16:57;;;;;;;1.00;0.50;;;;;;;12.06;75.89;97053.28;2069917;28;20546;-64
2024/02/14 13:18:00;;;;;;;1.20;0.57;;;;;;;11.93;76.12;97037.25;2068953;28;20206;-64
2024/02/14 13:19:02;;;;;;;1.10;0.50;;;;;;;11.93;76.18;97049.47;2068973;28;20614;-66
2024/02/14 13:20:05;;;;;;;1.00;0.50;;;;;;;11.92;76.47;97050.38;2060386;28;20194;-64
2024/02/14 13:21:07;;;;;;;1.50;0.70;;;;;;;11.93;76.31;97054.72;2067228;28;20287;-64
2024/02/14 13:22:09;;;;;;;1.20;0.60;;;;;;;11.86;76.50;97037.56;2068416;28;20202;-65
2024/02/14 13:23:10;;;;;;;1.20;0.60;;;;;;;11.94;76.71;97051.19;2067549;28;20205;-64
2024/02/14 13:24:12;;;;;;;1.42;0.80;;;;;;;11.93;76.92;97052.09;2068632;28;20201;-64
2024/02/14 13:25:14;;;;;;;1.40;0.60;;;;;;;11.92;76.50;97051.25;2066915;28;20693;-64
2024/02/14 13:26:17;;;;;;;1.55;0.70;;;;;;;11.91;76.47;97043.47;2068776;28;20274;-64
2024/02/14 13:27:21;;;;;;;2.05;0.70;;;;;;;11.89;76.72;97046.13;2063707;28;20729;-64
2024/02/14 13:37:09;;;;;;;4.43;3.28;;;;;;;11.37;78.88;97037.91;2084211;28;20565;-62
2024/02/14 13:57:49;;;;;;;1.10;0.50;;;;;;;11.22;80.42;97052.44;2091717;27;20899;-64
2024/02/14 14:01:50;;;;;;;1.90;0.68;;;;;;;11.30;80.81;97044.28;2092073;27;21073;-65
2024/02/14 14:02:52;;;;;;;1.60;0.70;;;;;;;11.36;81.04;97049.28;2089397;28;20289;-65
2024/02/14 14:07:19;;;;;;;4.22;1.00;;;;;;;11.46;80.68;97029.66;2082315;28;20854;-63
